Terminal Aerodrome Forecast
Issued by NWS Grand Forks, ND

Home | Current Version | Previous Version | Text Only | Print | Product List | Glossary Off
Versions: 1 2 3 4 5 6 7 8 9 10 11 12 13 14 15 16 17 18 19 20 21 22 23 24

000
FTUS43 KFGF 151453 AAB
TAFFAR
TAF AMD
KFAR 151453Z 1515/1612 34003KT P6SM -SN FEW040 OVC050
      TEMPO 1515/1516 3SM -SN OVC025
     FM151600 14005KT P6SM OVC025
     FM152100 15007KT 1 1/2SM -SN OVC008
     FM160100 14007KT 3SM -SN OVC010
     FM160200 14006KT P6SM OVC015
     FM160900 13004KT P6SM OVC035=

USA.gov is the U.S. government's official web portal to all federal, state and local government web resources and services.